Time;durP1;ratioP1;P1;durP2;ratioP2;P2;SDS_P1;SDS_P2;PMS_P1;PMS_P2;Temp;Humidity;BMP_temperature;BMP_pressure;BME280_temperature;BME280_humidity;BME280_pressure;Samples;Min_cycle;Max_cycle;Signal;HPM_P1;HPM_P2
2024/01/26 00:00:17;;;;;;;46.53;32.08;;;;;;;4.25;100.00;97453.16;5065731;28;20104;-69
2024/01/26 00:02:43;;;;;;;32.95;23.13;;;;;;;4.30;100.00;97447.78;5066073;28;20024;-70
2024/01/26 00:05:09;;;;;;;18.30;14.25;;;;;;;4.26;100.00;97433.16;5068298;28;20082;-69
2024/01/26 00:07:34;;;;;;;23.20;15.10;;;;;;;4.27;100.00;97422.66;5067168;28;20035;-69
2024/01/26 00:09:59;;;;;;;19.23;15.38;;;;;;;4.31;100.00;97418.19;5065921;28;20076;-69
2024/01/26 00:12:25;;;;;;;13.38;10.60;;;;;;;4.38;100.00;97417.03;5062534;28;20104;-69
2024/01/26 00:14:50;;;;;;;12.20;9.90;;;;;;;4.48;100.00;97407.06;5065113;28;20027;-69
2024/01/26 00:17:15;;;;;;;13.70;10.57;;;;;;;4.63;100.00;97407.38;5070108;28;20542;-69
2024/01/26 00:19:41;;;;;;;18.15;15.70;;;;;;;4.67;100.00;97391.53;5069407;28;20028;-69
2024/01/26 00:22:06;;;;;;;15.45;12.70;;;;;;;4.72;100.00;97397.41;5076279;28;20016;-69
2024/01/26 00:24:31;;;;;;;11.95;10.55;;;;;;;4.73;100.00;97393.03;5066898;28;20021;-69
2024/01/26 00:26:58;;;;;;;19.25;13.68;;;;;;;4.72;100.00;97404.38;5067075;28;20048;-69
2024/01/26 00:29:23;;;;;;;25.98;18.55;;;;;;;4.77;100.00;97402.44;5067881;28;20029;-69
2024/01/26 00:31:49;;;;;;;30.02;20.75;;;;;;;4.84;100.00;97400.41;5063970;28;20239;-69
2024/01/26 00:34:14;;;;;;;29.95;25.08;;;;;;;4.94;100.00;97399.13;5070086;28;20020;-69
2024/01/26 00:36:39;;;;;;;25.23;19.27;;;;;;;4.97;100.00;97391.16;5063660;28;20086;-69
2024/01/26 00:39:06;;;;;;;24.95;17.35;;;;;;;4.99;100.00;97389.31;5064302;28;20052;-70
2024/01/26 00:41:32;;;;;;;13.60;10.43;;;;;;;5.04;100.00;97396.09;5064222;28;20053;-70
2024/01/26 00:43:57;;;;;;;13.27;11.18;;;;;;;5.06;100.00;97402.97;5059981;28;20021;-70
2024/01/26 00:46:23;;;;;;;10.18;9.18;;;;;;;5.06;100.00;97410.81;5067505;28;20015;-70
2024/01/26 00:48:48;;;;;;;7.97;7.18;;;;;;;5.10;100.00;97404.53;5063237;28;20048;-69
2024/01/26 00:51:14;;;;;;;8.88;6.53;;;;;;;5.13;100.00;97411.41;5071621;28;20472;-69
2024/01/26 00:53:39;;;;;;;6.90;6.20;;;;;;;5.17;100.00;97410.34;5071894;28;20033;-69
2024/01/26 00:56:05;;;;;;;8.07;7.38;;;;;;;5.24;100.00;97406.53;5064559;28;20103;-70
2024/01/26 00:58:30;;;;;;;15.63;14.02;;;;;;;5.28;100.00;97405.47;5072877;28;20035;-69
2024/01/26 01:00:56;;;;;;;7.82;7.03;;;;;;;5.34;100.00;97401.75;5067968;28;20046;-69
2024/01/26 01:03:21;;;;;;;6.05;5.55;;;;;;;5.41;100.00;97400.56;5059391;28;20017;-69
2024/01/26 01:05:47;;;;;;;7.00;6.30;;;;;;;5.36;100.00;97399.09;5063696;28;20104;-69
2024/01/26 01:08:12;;;;;;;6.65;5.75;;;;;;;5.35;100.00;97397.41;5068059;28;20028;-69
2024/01/26 01:10:37;;;;;;;10.35;7.03;;;;;;;5.29;100.00;97408.97;5062589;28;20032;-70
2024/01/26 01:13:04;;;;;;;10.65;9.68;;;;;;;5.25;100.00;97410.84;5062825;28;20029;-69
2024/01/26 01:15:31;;;;;;;8.90;8.20;;;;;;;5.27;100.00;97406.41;5068232;28;20221;-69
2024/01/26 01:17:56;;;;;;;10.88;8.50;;;;;;;5.28;100.00;97402.88;5063465;28;20500;-70
2024/01/26 01:20:22;;;;;;;9.65;8.18;;;;;;;5.28;100.00;97402.88;5065324;28;20020;-69
2024/01/26 01:22:47;;;;;;;8.88;8.02;;;;;;;5.26;100.00;97402.09;5072491;28;20024;-70
2024/01/26 01:25:13;;;;;;;7.90;6.78;;;;;;;5.24;100.00;97405.72;5058264;28;20163;-69
2024/01/26 01:27:39;;;;;;;11.88;9.57;;;;;;;5.21;100.00;97414.50;5067659;28;20507;-69
2024/01/26 01:30:06;;;;;;;14.35;12.80;;;;;;;5.27;100.00;97408.19;5070608;28;20074;-70
2024/01/26 01:32:31;;;;;;;11.20;7.38;;;;;;;5.26;100.00;97404.69;5070440;28;20016;-69
2024/01/26 01:34:57;;;;;;;9.73;7.07;;;;;;;5.22;100.00;97407.53;5068854;28;20021;-69
2024/01/26 01:37:22;;;;;;;8.38;6.55;;;;;;;5.20;100.00;97409.38;5066403;28;20489;-69
2024/01/26 01:39:49;;;;;;;8.60;7.38;;;;;;;5.18;100.00;97404.19;5069416;28;20021;-69
2024/01/26 01:42:14;;;;;;;7.55;6.75;;;;;;;5.17;100.00;97397.28;5064508;28;20049;-70
2024/01/26 01:44:41;;;;;;;7.50;6.75;;;;;;;5.15;100.00;97388.66;5073569;28;20401;-69
2024/01/26 01:47:08;;;;;;;8.32;6.97;;;;;;;5.11;100.00;97379.28;5066828;28;20363;-69
2024/01/26 01:49:33;;;;;;;6.97;6.13;;;;;;;5.06;100.00;97379.47;5069450;28;20430;-70
2024/01/26 01:52:00;;;;;;;7.47;6.70;;;;;;;5.02;100.00;97375.31;5073375;28;20111;-69
2024/01/26 01:54:26;;;;;;;7.07;6.47;;;;;;;4.97;100.00;97372.88;5067854;28;20031;-69
2024/01/26 01:56:53;;;;;;;8.13;7.10;;;;;;;4.94;100.00;97374.75;5066966;28;20139;-69
2024/01/26 01:59:20;;;;;;;10.07;7.03;;;;;;;4.86;100.00;97375.94;5072893;28;20561;-69
2024/01/26 02:01:46;;;;;;;7.57;6.85;;;;;;;4.77;100.00;97386.78;5068084;28;20427;-69
2024/01/26 02:04:11;;;;;;;7.40;6.68;;;;;;;4.71;100.00;97382.66;5069473;28;20121;-69
2024/01/26 02:06:37;;;;;;;11.30;10.02;;;;;;;4.64;100.00;97383.84;5071157;28;20146;-69
2024/01/26 02:09:02;;;;;;;22.88;19.95;;;;;;;4.58;100.00;97381.47;5070369;28;20024;-69
2024/01/26 02:11:28;;;;;;;10.38;8.82;;;;;;;4.54;100.00;97374.69;5068469;28;20115;-69
2024/01/26 02:13:53;;;;;;;9.48;6.88;;;;;;;4.52;100.00;97377.34;5060588;28;20393;-69
2024/01/26 02:16:19;;;;;;;10.15;7.38;;;;;;;4.50;100.00;97373.94;5064954;28;20029;-69
2024/01/26 02:18:44;;;;;;;8.45;7.65;;;;;;;4.49;100.00;97371.41;5074034;28;20030;-70
2024/01/26 02:21:09;;;;;;;9.48;6.63;;;;;;;4.57;100.00;97383.25;5066311;28;20029;-69
2024/01/26 02:23:41;;;;;;;10.10;7.53;;;;;;;4.53;100.00;97384.28;5072934;28;20016;-69
2024/01/26 02:26:07;;;;;;;11.68;6.90;;;;;;;4.40;100.00;97381.28;5065498;28;20020;-69
2024/01/26 02:28:32;;;;;;;9.70;7.95;;;;;;;4.35;100.00;97374.59;5070214;28;20021;-69
2024/01/26 02:30:57;;;;;;;10.88;6.90;;;;;;;4.33;100.00;97379.03;5064458;28;20024;-69
2024/01/26 02:33:23;;;;;;;12.23;6.72;;;;;;;4.24;100.00;97378.47;5071189;28;20047;-69
2024/01/26 02:35:48;;;;;;;10.40;9.07;;;;;;;4.22;100.00;97374.25;5063008;28;20032;-69
2024/01/26 02:38:13;;;;;;;8.05;7.25;;;;;;;4.11;100.00;97367.69;5069549;28;20051;-69
2024/01/26 02:40:39;;;;;;;10.38;7.97;;;;;;;3.99;100.00;97369.00;5075521;28;20032;-69
2024/01/26 02:43:04;;;;;;;10.23;9.07;;;;;;;4.00;100.00;97373.31;5063977;28;20036;-69
2024/01/26 02:45:29;;;;;;;11.05;8.88;;;;;;;4.01;100.00;97377.63;5069490;28;20511;-69
2024/01/26 02:47:56;;;;;;;10.35;9.35;;;;;;;3.95;100.00;97377.00;5074501;28;20028;-70
2024/01/26 02:50:22;;;;;;;11.85;8.23;;;;;;;3.91;100.00;97376.28;5067788;28;20107;-69
2024/01/26 02:52:47;;;;;;;13.38;9.82;;;;;;;3.90;100.00;97382.41;5061091;28;20033;-69
2024/01/26 02:55:12;;;;;;;10.35;9.18;;;;;;;3.91;100.00;97381.50;5070546;28;20036;-69
2024/01/26 02:57:38;;;;;;;9.55;8.65;;;;;;;3.91;100.00;97389.31;5074208;28;20091;-69
2024/01/26 03:00:05;;;;;;;8.00;6.50;;;;;;;3.89;100.00;97383.31;5065464;28;20051;-69
2024/01/26 03:02:30;;;;;;;9.65;7.20;;;;;;;3.90;100.00;97382.41;5071131;28;20036;-70
2024/01/26 03:04:56;;;;;;;9.65;8.75;;;;;;;3.93;100.00;97381.41;5070593;28;20027;-69
2024/01/26 03:07:21;;;;;;;9.43;8.38;;;;;;;3.97;100.00;97386.47;5071614;28;20024;-69
2024/01/26 03:09:47;;;;;;;16.65;14.13;;;;;;;3.98;100.00;97372.53;5068197;28;20417;-70
2024/01/26 03:12:12;;;;;;;13.13;11.90;;;;;;;3.99;100.00;97371.63;5074368;28;20070;-69
2024/01/26 03:14:37;;;;;;;13.23;11.40;;;;;;;3.98;100.00;97356.06;5068771;28;20020;-69
2024/01/26 03:17:03;;;;;;;11.02;9.93;;;;;;;3.97;100.00;97355.19;5069919;28;20120;-69
2024/01/26 03:19:28;;;;;;;12.32;10.80;;;;;;;3.92;100.00;97357.13;5073016;28;20093;-69
2024/01/26 03:21:53;;;;;;;10.75;8.52;;;;;;;3.86;100.00;97363.44;5064315;28;20086;-68
2024/01/26 03:24:19;;;;;;;12.43;8.50;;;;;;;3.81;100.00;97361.91;5065292;28;20512;-69
2024/01/26 03:26:44;;;;;;;10.52;8.32;;;;;;;3.70;100.00;97355.34;5073874;28;20063;-70
2024/01/26 03:29:10;;;;;;;11.73;9.60;;;;;;;3.65;100.00;97357.28;5065422;28;20044;-69
2024/01/26 03:31:35;;;;;;;10.98;8.32;;;;;;;3.53;100.00;97349.94;5072333;28;20029;-69
2024/01/26 03:34:01;;;;;;;11.65;8.55;;;;;;;3.52;100.00;97358.66;5064873;28;20031;-69
2024/01/26 03:36:27;;;;;;;9.57;8.60;;;;;;;3.50;100.00;97360.47;5067008;28;20033;-69
2024/01/26 03:38:52;;;;;;;11.23;8.40;;;;;;;3.46;100.00;97354.50;5072466;28;20028;-69
2024/01/26 03:41:18;;;;;;;11.10;9.52;;;;;;;3.43;100.00;97352.03;5064122;28;20055;-69
2024/01/26 03:43:44;;;;;;;12.15;8.43;;;;;;;3.49;100.00;97353.56;5063590;28;20096;-69
2024/01/26 03:46:11;;;;;;;11.85;9.05;;;;;;;3.42;100.00;97343.34;5061390;28;20047;-69
2024/01/26 03:48:37;;;;;;;10.55;8.88;;;;;;;3.33;100.00;97354.13;5060922;28;20085;-69
2024/01/26 03:51:02;;;;;;;8.05;7.25;;;;;;;3.30;100.00;97356.84;5058846;28;20082;-69
2024/01/26 03:53:28;;;;;;;8.90;8.00;;;;;;;3.21;100.00;97365.00;5063151;28;20032;-69
2024/01/26 03:55:54;;;;;;;10.75;8.48;;;;;;;3.18;100.00;97360.72;5073326;28;20082;-69
2024/01/26 03:58:19;;;;;;;14.20;9.25;;;;;;;3.14;100.00;97357.38;5070422;28;20028;-69
2024/01/26 04:00:45;;;;;;;9.57;8.52;;;;;;;3.10;100.00;97361.00;5068630;28;20425;-69
2024/01/26 04:03:10;;;;;;;10.88;9.75;;;;;;;2.98;100.00;97364.88;5060549;28;20059;-69
2024/01/26 04:05:36;;;;;;;9.52;8.13;;;;;;;3.00;100.00;97372.66;5066403;28;20020;-69
2024/01/26 04:08:03;;;;;;;10.05;9.05;;;;;;;3.10;100.00;97376.63;5067794;28;20039;-70
2024/01/26 04:10:29;;;;;;;9.07;7.68;;;;;;;3.03;100.00;97369.94;5064750;28;20154;-69
2024/01/26 04:12:54;;;;;;;7.32;6.50;;;;;;;2.99;100.00;97363.97;5062352;28;20024;-69
2024/01/26 04:15:19;;;;;;;7.03;6.38;;;;;;;2.98;100.00;97356.22;5067275;28;20028;-69
2024/01/26 04:17:45;;;;;;;8.52;5.78;;;;;;;2.93;100.00;97365.94;5066398;28;20055;-69
2024/01/26 04:20:10;;;;;;;6.75;6.15;;;;;;;2.93;100.00;97363.34;5068557;28;20024;-69
2024/01/26 04:22:36;;;;;;;8.18;7.00;;;;;;;2.92;100.00;97375.53;5066825;28;20025;-69
2024/01/26 04:25:01;;;;;;;7.97;6.20;;;;;;;2.95;100.00;97374.53;5063166;28;20535;-69
2024/01/26 04:27:26;;;;;;;8.07;6.05;;;;;;;2.90;100.00;97389.47;5056608;28;20025;-69
2024/01/26 04:29:52;;;;;;;13.57;10.95;;;;;;;2.82;100.00;97381.94;5056603;28;20102;-69
2024/01/26 04:32:18;;;;;;;15.13;11.73;;;;;;;2.80;100.00;97382.00;5057452;28;20056;-69
2024/01/26 04:34:45;;;;;;;15.35;8.75;;;;;;;2.78;100.00;97383.81;5054992;28;20032;-69
2024/01/26 04:37:10;;;;;;;9.95;7.03;;;;;;;2.79;100.00;97395.03;5045580;28;20032;-70
2024/01/26 04:39:36;;;;;;;43.63;29.05;;;;;;;2.81;100.00;97399.31;5055002;28;20056;-70
2024/01/26 04:42:01;;;;;;;23.15;14.70;;;;;;;2.81;100.00;97404.50;5059230;28;20052;-69
2024/01/26 04:44:26;;;;;;;38.03;25.65;;;;;;;2.79;100.00;97402.84;5072424;28;20024;-69
2024/01/26 04:46:55;;;;;;;38.15;26.30;;;;;;;2.76;100.00;97409.00;5074013;28;20020;-69
2024/01/26 04:49:21;;;;;;;49.22;30.42;;;;;;;2.75;100.00;97414.25;5066905;28;20025;-69
2024/01/26 04:51:46;;;;;;;50.67;36.25;;;;;;;2.70;100.00;97422.22;5066493;28;20033;-69
2024/01/26 04:54:11;;;;;;;41.75;30.23;;;;;;;2.72;100.00;97415.19;5054898;28;20107;-70
2024/01/26 04:56:37;;;;;;;33.65;22.48;;;;;;;2.60;100.00;97416.44;5066718;28;20088;-70
2024/01/26 04:59:02;;;;;;;24.98;18.75;;;;;;;2.56;100.00;97418.31;5051693;28;20510;-69
2024/01/26 05:01:28;;;;;;;19.17;13.55;;;;;;;2.52;100.00;97408.06;5062550;28;20021;-69
2024/01/26 05:03:54;;;;;;;11.63;8.63;;;;;;;2.49;100.00;97411.59;5060267;28;20021;-69
2024/01/26 05:06:19;;;;;;;15.07;9.65;;;;;;;2.48;100.00;97409.91;5060421;28;20024;-69
2024/01/26 05:08:45;;;;;;;10.60;9.52;;;;;;;2.47;100.00;97418.59;5063614;28;20036;-69
2024/01/26 05:11:10;;;;;;;10.23;8.10;;;;;;;2.42;100.00;97418.75;5070977;28;20040;-69
2024/01/26 05:13:35;;;;;;;11.45;7.22;;;;;;;2.48;100.00;97424.66;5059276;28;20021;-70
2024/01/26 05:16:01;;;;;;;8.00;7.07;;;;;;;2.52;100.00;97419.31;5058070;28;20107;-69
2024/01/26 05:18:28;;;;;;;8.75;7.88;;;;;;;2.54;100.00;97430.53;5070351;28;20020;-69
2024/01/26 05:20:53;;;;;;;8.00;7.28;;;;;;;2.50;100.00;97436.69;5062392;28;20443;-69
2024/01/26 05:23:19;;;;;;;9.30;8.10;;;;;;;2.49;100.00;97429.81;5070131;28;20020;-69
2024/01/26 05:25:45;;;;;;;8.07;7.25;;;;;;;2.45;100.00;97436.00;5063077;28;20508;-69
2024/01/26 05:28:10;;;;;;;8.35;7.65;;;;;;;2.45;100.00;97419.56;5058647;28;20054;-70
2024/01/26 05:30:35;;;;;;;8.75;7.68;;;;;;;2.41;100.00;97429.22;5056878;28;20017;-69
2024/01/26 05:33:01;;;;;;;8.25;7.45;;;;;;;2.35;100.00;97432.00;5067721;28;20051;-69
2024/01/26 05:35:26;;;;;;;13.98;9.32;;;;;;;2.32;100.00;97425.16;5060955;28;20421;-69
2024/01/26 05:37:51;;;;;;;18.73;10.10;;;;;;;2.33;100.00;97421.66;5073899;28;20477;-70
2024/01/26 05:40:17;;;;;;;12.38;9.98;;;;;;;2.35;100.00;97424.22;5060698;28;20075;-69
2024/01/26 05:42:42;;;;;;;11.05;9.50;;;;;;;2.32;100.00;97421.69;5069524;28;20406;-69
2024/01/26 05:45:08;;;;;;;12.23;9.43;;;;;;;2.26;100.00;97431.38;5062658;28;20020;-70
2024/01/26 05:47:34;;;;;;;11.35;10.23;;;;;;;2.26;100.00;97433.16;5075426;28;20085;-69
2024/01/26 05:49:59;;;;;;;10.77;9.77;;;;;;;2.20;100.00;97428.13;5076693;28;20021;-69
2024/01/26 05:52:24;;;;;;;12.82;11.15;;;;;;;2.18;100.00;97441.19;5062968;28;20020;-69
2024/01/26 05:54:50;;;;;;;14.45;9.20;;;;;;;2.18;100.00;97437.72;5066289;28;20039;-69
2024/01/26 05:57:16;;;;;;;11.52;10.43;;;;;;;2.16;100.00;97442.97;5064233;28;20020;-69
2024/01/26 05:59:42;;;;;;;10.45;9.35;;;;;;;2.14;100.00;97440.41;5065486;28;20037;-69
2024/01/26 06:02:08;;;;;;;11.77;9.02;;;;;;;2.17;100.00;97449.00;5074045;28;20028;-69
2024/01/26 06:04:33;;;;;;;9.07;7.55;;;;;;;2.10;100.00;97450.94;5077540;28;20531;-69
2024/01/26 06:06:59;;;;;;;7.60;6.90;;;;;;;2.09;100.00;97460.50;5057535;28;20480;-69
2024/01/26 06:09:25;;;;;;;9.85;8.43;;;;;;;2.06;100.00;97476.19;5061326;28;20049;-69
2024/01/26 06:11:50;;;;;;;7.43;6.75;;;;;;;2.09;100.00;97473.47;5059953;28;20033;-69
2024/01/26 06:14:16;;;;;;;8.68;7.72;;;;;;;2.13;100.00;97464.69;5062899;28;20028;-69
2024/01/26 06:16:41;;;;;;;13.32;8.10;;;;;;;2.10;100.00;97484.72;5068531;28;20044;-69
2024/01/26 06:19:06;;;;;;;11.10;8.40;;;;;;;2.11;100.00;97496.84;5057767;28;20462;-69
2024/01/26 06:21:32;;;;;;;13.35;9.80;;;;;;;2.14;100.00;97491.53;5068519;28;20056;-69
2024/01/26 06:23:58;;;;;;;13.48;11.30;;;;;;;2.18;100.00;97492.28;5060558;28;20088;-69
2024/01/26 06:26:25;;;;;;;16.00;11.13;;;;;;;2.22;100.00;97479.16;5065634;28;20093;-69
2024/01/26 06:28:51;;;;;;;12.95;9.82;;;;;;;2.21;100.00;97487.84;5071591;28;20033;-69
2024/01/26 06:31:16;;;;;;;13.63;10.25;;;;;;;2.15;100.00;97496.69;5063610;28;20033;-69
2024/01/26 06:33:41;;;;;;;11.20;9.07;;;;;;;2.15;100.00;97493.25;5061680;28;20025;-69
2024/01/26 06:36:07;;;;;;;9.15;8.38;;;;;;;2.21;100.00;97502.59;5063875;28;20029;-69
2024/01/26 06:38:32;;;;;;;12.48;9.38;;;;;;;2.17;100.00;97494.03;5060687;28;20063;-69
2024/01/26 06:40:59;;;;;;;12.15;9.95;;;;;;;2.17;100.00;97487.97;5067133;28;20048;-69
2024/01/26 06:43:24;;;;;;;22.85;20.55;;;;;;;2.10;100.00;97487.31;5067691;28;20527;-68
2024/01/26 06:45:50;;;;;;;16.13;14.43;;;;;;;2.04;100.00;97483.16;5069530;28;20032;-69
2024/01/26 06:48:15;;;;;;;14.55;12.98;;;;;;;2.05;100.00;97494.41;5065436;28;20094;-68
2024/01/26 06:50:40;;;;;;;15.63;11.38;;;;;;;2.06;100.00;97490.91;5065668;28;20029;-69
2024/01/26 06:53:06;;;;;;;12.57;10.55;;;;;;;2.09;100.00;97496.88;5074765;28;20396;-67
2024/01/26 06:55:31;;;;;;;12.75;11.43;;;;;;;2.10;100.00;97490.78;5074141;28;20024;-69
2024/01/26 06:57:57;;;;;;;13.27;11.55;;;;;;;2.10;100.00;97495.09;5068002;28;20025;-67
2024/01/26 07:00:22;;;;;;;14.05;11.65;;;;;;;2.12;100.00;97503.72;5066422;28;20039;-67
2024/01/26 07:02:47;;;;;;;12.95;10.82;;;;;;;2.06;100.00;97504.75;5061956;28;20118;-68
2024/01/26 07:05:13;;;;;;;11.07;9.98;;;;;;;2.04;100.00;97500.50;5073064;28;20036;-67
2024/01/26 07:07:38;;;;;;;11.45;10.25;;;;;;;2.05;100.00;97490.06;5065178;28;20036;-68
2024/01/26 07:10:04;;;;;;;13.93;12.00;;;;;;;2.08;100.00;97502.09;5067140;28;20027;-68
2024/01/26 07:12:30;;;;;;;17.00;12.80;;;;;;;2.15;100.00;97503.63;5058495;28;20028;-67
2024/01/26 07:14:55;;;;;;;13.70;12.48;;;;;;;2.13;100.00;97506.28;5066078;28;20051;-69
2024/01/26 07:17:20;;;;;;;16.23;13.48;;;;;;;2.15;100.00;97514.03;5069651;28;20065;-68
2024/01/26 07:19:46;;;;;;;11.98;10.43;;;;;;;2.21;100.00;97503.44;5059428;28;20028;-68
2024/01/26 07:22:11;;;;;;;13.65;12.00;;;;;;;2.18;100.00;97500.94;5079620;28;20474;-68
2024/01/26 07:24:36;;;;;;;19.33;16.35;;;;;;;2.10;100.00;97495.09;5061600;28;20028;-68
2024/01/26 07:27:02;;;;;;;17.80;15.77;;;;;;;2.11;100.00;97497.66;5060041;28;20016;-68
2024/01/26 07:29:27;;;;;;;19.15;16.55;;;;;;;2.13;100.00;97495.88;5064403;28;20027;-67
2024/01/26 07:31:53;;;;;;;24.80;22.20;;;;;;;2.17;100.00;97500.97;5063604;28;20116;-67
2024/01/26 07:34:18;;;;;;;24.38;15.25;;;;;;;2.25;100.00;97493.81;5059280;28;20025;-67
2024/01/26 07:36:43;;;;;;;28.75;25.75;;;;;;;2.40;100.00;97495.09;5062333;28;20432;-67
2024/01/26 07:39:09;;;;;;;15.23;11.85;;;;;;;2.31;100.00;97480.63;5065730;28;20622;-67
2024/01/26 07:41:36;;;;;;;10.13;8.13;;;;;;;2.29;100.00;97477.22;5053762;28;20097;-67
2024/01/26 07:44:01;;;;;;;11.07;8.80;;;;;;;2.27;100.00;97481.63;5071624;28;20035;-67
2024/01/26 07:46:26;;;;;;;12.93;9.63;;;;;;;2.22;100.00;97484.34;5060697;28;20017;-67
2024/01/26 07:48:52;;;;;;;13.15;10.60;;;;;;;2.22;100.00;97489.56;5060418;28;20020;-67
2024/01/26 07:51:17;;;;;;;10.85;9.82;;;;;;;2.26;100.00;97485.97;5060981;28;20081;-66
2024/01/26 07:53:42;;;;;;;10.13;9.15;;;;;;;2.29;100.00;97488.47;5066928;28;20035;-68
2024/01/26 07:56:08;;;;;;;11.63;9.27;;;;;;;2.33;100.00;97489.22;5061279;28;20117;-68
2024/01/26 07:58:33;;;;;;;15.05;8.50;;;;;;;2.38;100.00;97483.91;5069279;28;20027;-68
2024/01/26 08:00:58;;;;;;;8.80;8.00;;;;;;;2.47;100.00;97486.19;5066710;28;20021;-68
2024/01/26 08:03:24;;;;;;;9.95;9.05;;;;;;;2.55;100.00;97476.44;5062675;28;20027;-68
2024/01/26 08:05:49;;;;;;;17.65;11.43;;;;;;;2.54;100.00;97479.94;5066667;28;20502;-68
2024/01/26 08:08:15;;;;;;;11.35;9.25;;;;;;;2.53;100.00;97479.97;5066173;28;20021;-67
2024/01/26 08:10:40;;;;;;;9.85;8.02;;;;;;;2.56;100.00;97479.88;5062297;28;20031;-68
2024/01/26 08:13:06;;;;;;;11.88;9.25;;;;;;;2.62;100.00;97486.63;5068336;28;20025;-68
2024/01/26 08:15:31;;;;;;;11.73;9.55;;;;;;;2.66;100.00;97483.03;5070040;28;20036;-68
2024/01/26 08:17:56;;;;;;;12.02;9.77;;;;;;;2.67;100.00;97490.78;5066256;28;20027;-68
2024/01/26 08:20:22;;;;;;;25.02;15.93;;;;;;;2.71;100.00;97499.34;5064803;28;20070;-68
2024/01/26 08:22:47;;;;;;;19.63;17.13;;;;;;;2.75;100.00;97493.13;5071484;28;20020;-68
2024/01/26 08:25:13;;;;;;;21.00;18.50;;;;;;;2.75;100.00;97498.31;5061730;28;20104;-68
2024/01/26 08:27:38;;;;;;;20.90;16.70;;;;;;;2.75;100.00;97497.50;5065032;28;20019;-68
2024/01/26 08:30:04;;;;;;;19.35;16.23;;;;;;;2.77;100.00;97501.75;5057927;28;20090;-68
2024/01/26 08:32:30;;;;;;;21.35;16.15;;;;;;;2.77;100.00;97504.38;5063095;28;20039;-68
2024/01/26 08:34:56;;;;;;;12.88;11.52;;;;;;;2.84;100.00;97498.06;5064223;28;20033;-68
2024/01/26 08:37:21;;;;;;;12.65;11.13;;;;;;;2.98;100.00;97500.19;5064561;28;20028;-68
2024/01/26 08:39:47;;;;;;;11.70;10.63;;;;;;;3.03;100.00;97505.25;5069507;28;20032;-68
2024/01/26 08:42:12;;;;;;;10.32;9.43;;;;;;;3.07;100.00;97504.25;5066114;28;20127;-68
2024/01/26 08:44:37;;;;;;;11.05;10.00;;;;;;;3.19;100.00;97499.53;5072069;28;20029;-68
2024/01/26 08:47:04;;;;;;;13.35;10.32;;;;;;;3.28;100.00;97494.84;5063401;28;20547;-68
2024/01/26 08:49:29;;;;;;;12.15;11.05;;;;;;;3.34;100.00;97486.00;5066941;28;20048;-68
2024/01/26 08:51:57;;;;;;;12.20;10.70;;;;;;;3.42;100.00;97481.34;5068807;28;20033;-68
2024/01/26 08:54:23;;;;;;;12.75;11.32;;;;;;;3.49;100.00;97488.97;5069093;28;20025;-68
2024/01/26 08:56:49;;;;;;;13.20;11.57;;;;;;;3.52;100.00;97486.25;5061277;28;20107;-68
2024/01/26 08:59:14;;;;;;;15.70;12.20;;;;;;;3.63;100.00;97480.66;5072464;28;20549;-68
2024/01/26 09:01:40;;;;;;;15.32;11.98;;;;;;;3.70;100.00;97485.63;5072634;28;20552;-68
2024/01/26 09:04:05;;;;;;;12.23;10.27;;;;;;;3.80;100.00;97493.09;5070745;28;20045;-67
2024/01/26 09:06:34;;;;;;;12.95;10.15;;;;;;;3.91;100.00;97495.28;5068550;28;20021;-67
2024/01/26 09:09:00;;;;;;;10.77;9.60;;;;;;;3.96;100.00;97507.25;5062570;28;20033;-69
2024/01/26 09:11:26;;;;;;;10.98;9.48;;;;;;;4.10;100.00;97485.91;5064107;28;20593;-69
2024/01/26 09:13:51;;;;;;;11.18;9.98;;;;;;;4.25;100.00;97487.06;5068070;28;20024;-69
2024/01/26 09:16:17;;;;;;;17.30;11.82;;;;;;;4.36;100.00;97491.03;5067915;28;20024;-69
2024/01/26 09:18:42;;;;;;;17.77;13.23;;;;;;;4.59;100.00;97504.03;5069654;28;20251;-69
2024/01/26 09:21:10;;;;;;;15.13;11.75;;;;;;;4.90;100.00;97501.09;5069927;28;20028;-69
2024/01/26 09:23:36;;;;;;;18.65;13.13;;;;;;;5.10;100.00;97506.34;5056334;28;20549;-69
2024/01/26 09:26:02;;;;;;;16.83;11.30;;;;;;;5.23;100.00;97524.97;5067972;28;20127;-69
2024/01/26 09:28:27;;;;;;;12.82;11.52;;;;;;;5.43;100.00;97518.94;5056247;28;20079;-69
2024/01/26 09:30:53;;;;;;;18.45;16.65;;;;;;;5.69;100.00;97530.03;5057508;28;20386;-69
2024/01/26 09:33:18;;;;;;;16.20;13.05;;;;;;;5.98;100.00;97532.28;5060461;28;20108;-69
2024/01/26 09:35:43;;;;;;;18.80;14.10;;;;;;;6.33;100.00;97534.25;5069604;28;20028;-69
2024/01/26 09:38:09;;;;;;;24.27;20.13;;;;;;;6.69;100.00;97534.31;5067294;28;20305;-69
2024/01/26 09:40:35;;;;;;;40.28;36.10;;;;;;;7.07;100.00;97533.38;5069997;28;20035;-69
2024/01/26 09:43:00;;;;;;;16.63;12.35;;;;;;;7.28;100.00;97528.00;5067004;28;20033;-69
2024/01/26 09:45:26;;;;;;;16.30;13.77;;;;;;;7.46;100.00;97536.72;5068559;28;20048;-69
2024/01/26 09:47:54;;;;;;;13.80;12.38;;;;;;;7.69;100.00;97530.31;5058411;28;20039;-69
2024/01/26 09:50:25;;;;;;;13.30;11.90;;;;;;;7.99;100.00;97531.44;5067486;28;20020;-69
2024/01/26 09:52:51;;;;;;;10.95;8.27;;;;;;;8.27;100.00;97545.72;5062935;28;20043;-69
2024/01/26 09:55:18;;;;;;;8.38;7.57;;;;;;;8.56;100.00;97525.78;5065639;28;20029;-69
2024/01/26 09:57:45;;;;;;;8.63;7.43;;;;;;;8.74;100.00;97523.09;5062592;28;20051;-69
2024/01/26 10:00:11;;;;;;;11.80;10.60;;;;;;;8.89;100.00;97518.75;5055183;28;20100;-69
2024/01/26 10:02:37;;;;;;;14.02;11.73;;;;;;;8.97;100.00;97506.00;5062813;28;20110;-69
2024/01/26 10:05:03;;;;;;;11.90;10.23;;;;;;;9.05;100.00;97508.22;5060673;28;20025;-69
2024/01/26 10:07:28;;;;;;;11.95;10.65;;;;;;;9.14;100.00;97504.22;5067405;28;20013;-69
2024/01/26 10:09:53;;;;;;;9.60;8.52;;;;;;;9.13;100.00;97492.84;5064185;28;20024;-69
2024/01/26 10:12:19;;;;;;;8.93;8.02;;;;;;;9.11;100.00;97484.19;5058022;28;20392;-69
2024/01/26 10:14:45;;;;;;;8.55;7.43;;;;;;;9.05;100.00;97484.56;5060622;28;20028;-69
2024/01/26 10:17:17;;;;;;;9.23;6.65;;;;;;;9.07;100.00;97476.59;5056538;28;20021;-69
2024/01/26 10:19:42;;;;;;;7.70;7.03;;;;;;;9.04;100.00;97488.13;5071522;28;20028;-69
2024/01/26 10:22:07;;;;;;;9.20;7.22;;;;;;;8.87;100.00;97484.69;5080634;28;20024;-69
2024/01/26 10:24:33;;;;;;;8.93;7.32;;;;;;;8.79;100.00;97479.03;5054641;28;20098;-69
2024/01/26 10:26:58;;;;;;;10.30;7.45;;;;;;;8.61;100.00;97475.63;5068684;28;20048;-69
2024/01/26 10:29:24;;;;;;;8.45;7.63;;;;;;;8.72;100.00;97475.03;5066725;28;20028;-69
2024/01/26 10:31:50;;;;;;;9.35;7.57;;;;;;;8.65;100.00;97476.31;5072924;28;20536;-69
2024/01/26 10:34:18;;;;;;;7.63;6.93;;;;;;;8.54;100.00;97463.78;5060496;28;20476;-69
2024/01/26 10:36:45;;;;;;;6.63;5.95;;;;;;;8.40;100.00;97461.91;5070484;28;20056;-69
2024/01/26 10:39:23;;;;;;;12.18;7.88;;;;;;;8.55;100.00;97461.09;5062068;28;20025;-69
2024/01/26 10:41:52;;;;;;;10.77;8.15;;;;;;;8.72;100.00;97456.66;5063062;28;20127;-69
2024/01/26 10:44:18;;;;;;;12.25;8.13;;;;;;;8.74;100.00;97455.63;5060713;28;20028;-69
2024/01/26 10:46:45;;;;;;;8.75;6.97;;;;;;;8.63;100.00;97462.44;5055926;28;20032;-70
2024/01/26 10:49:12;;;;;;;8.40;7.38;;;;;;;8.54;100.00;97445.41;5056877;28;20029;-70
2024/01/26 10:51:38;;;;;;;8.55;6.85;;;;;;;8.72;100.00;97457.50;5066023;28;20077;-70
2024/01/26 10:54:11;;;;;;;10.32;6.75;;;;;;;8.94;100.00;97448.41;5067632;28;20043;-69
2024/01/26 10:56:37;;;;;;;10.05;7.18;;;;;;;8.98;100.00;97446.47;5065026;28;20033;-70
2024/01/26 10:59:03;;;;;;;7.55;6.53;;;;;;;8.99;100.00;97450.78;5069305;28;20033;-69
2024/01/26 11:01:30;;;;;;;10.25;6.15;;;;;;;9.14;100.00;97456.91;5063305;28;20028;-69
2024/01/26 11:03:59;;;;;;;9.48;6.65;;;;;;;9.28;100.00;97449.06;5056252;28;20031;-70
2024/01/26 11:06:26;;;;;;;6.28;5.68;;;;;;;9.45;100.00;97455.94;5073032;28;20444;-69
2024/01/26 11:09:06;;;;;;;7.95;5.90;;;;;;;9.72;100.00;97449.97;5057798;28;20024;-69
2024/01/26 11:11:33;;;;;;;6.25;5.10;;;;;;;9.95;100.00;97446.88;5067246;28;20096;-70
2024/01/26 11:14:11;;;;;;;6.22;5.10;;;;;;;9.85;100.00;97439.53;5063435;28;20103;-70
2024/01/26 11:16:42;;;;;;;6.70;5.32;;;;;;;10.07;100.00;97447.91;5066765;28;20033;-70